createdAt,value
2022-10-08T00:01:16.632Z,10.40
2022-10-08T00:03:47.021Z,10.30
2022-10-08T00:06:17.656Z,10.30
2022-10-08T00:08:49.675Z,10.30
2022-10-08T00:11:20.161Z,10.30
2022-10-08T00:13:48.760Z,10.30
2022-10-08T00:16:22.318Z,10.20
2022-10-08T00:18:51.942Z,10.20
2022-10-08T00:21:31.437Z,10.20
2022-10-08T00:23:59.746Z,10.10
2022-10-08T00:26:28.967Z,10.10
2022-10-08T00:28:58.619Z,10.10
2022-10-08T00:31:29.383Z,10.10
2022-10-08T00:33:58.319Z,10.00
2022-10-08T00:36:31.701Z,10.00
2022-10-08T00:39:05.693Z,10.00
2022-10-08T00:41:37.173Z,9.90
2022-10-08T00:44:43.075Z,9.90
2022-10-08T00:47:35.841Z,9.90
2022-10-08T00:50:08.983Z,9.80
2022-10-08T00:52:42.148Z,9.80
2022-10-08T00:55:10.637Z,9.70
2022-10-08T00:57:38.737Z,9.80
2022-10-08T01:00:16.670Z,9.80
2022-10-08T01:02:44.155Z,9.80
2022-10-08T01:05:14.536Z,9.80
2022-10-08T01:07:46.282Z,9.80
2022-10-08T01:10:26.712Z,9.70
2022-10-08T01:13:19.506Z,9.70
2022-10-08T01:15:58.380Z,9.70
2022-10-08T01:18:45.808Z,9.80
2022-10-08T01:21:35.503Z,9.70
2022-10-08T01:24:14.650Z,9.70
2022-10-08T01:27:05.969Z,9.80
2022-10-08T01:29:40.321Z,9.70
2022-10-08T01:32:21.021Z,9.70
2022-10-08T01:34:59.227Z,9.70
2022-10-08T01:37:31.841Z,9.60
2022-10-08T01:40:02.101Z,9.60
2022-10-08T01:42:32.120Z,9.60
2022-10-08T01:45:04.163Z,9.60
2022-10-08T01:47:33.021Z,9.60
2022-10-08T01:50:13.633Z,9.70
2022-10-08T01:52:49.391Z,9.60
2022-10-08T01:55:41.614Z,9.70
2022-10-08T01:58:31.116Z,9.60
2022-10-08T02:01:10.181Z,9.60
2022-10-08T02:03:37.452Z,9.70
2022-10-08T02:06:06.602Z,9.60
2022-10-08T02:08:33.879Z,9.60
2022-10-08T02:11:01.061Z,9.60
2022-10-08T02:13:28.212Z,9.70
2022-10-08T02:16:05.278Z,9.60
2022-10-08T02:18:50.987Z,9.70
2022-10-08T02:21:25.493Z,9.70
2022-10-08T02:24:12.957Z,9.60
2022-10-08T02:26:48.744Z,9.70
2022-10-08T02:29:33.309Z,9.60
2022-10-08T02:32:08.405Z,9.60
2022-10-08T02:34:38.289Z,9.60
2022-10-08T02:37:18.925Z,9.60
2022-10-08T02:40:01.098Z,9.60
2022-10-08T02:42:31.496Z,9.60
2022-10-08T02:45:10.441Z,9.60
2022-10-08T02:47:41.383Z,9.70
2022-10-08T02:50:18.285Z,9.70
2022-10-08T02:52:48.888Z,9.70
2022-10-08T02:55:40.597Z,9.70
2022-10-08T02:58:11.085Z,9.70
2022-10-08T03:00:49.459Z,9.60
2022-10-08T03:03:25.120Z,9.70
2022-10-08T03:05:53.280Z,9.60
2022-10-08T03:08:21.427Z,9.70
2022-10-08T03:10:49.108Z,9.70
2022-10-08T03:13:18.317Z,9.70
2022-10-08T03:15:46.877Z,9.70
2022-10-08T03:18:14.818Z,9.70
2022-10-08T03:20:50.611Z,9.80
2022-10-08T03:23:18.808Z,9.70
2022-10-08T03:25:46.124Z,9.70
2022-10-08T03:28:13.493Z,9.70
2022-10-08T03:30:40.852Z,9.70
2022-10-08T03:33:08.116Z,9.60
2022-10-08T03:35:35.334Z,9.80
2022-10-08T03:38:02.514Z,9.70
2022-10-08T03:40:29.645Z,9.80
2022-10-08T03:42:56.816Z,9.80
2022-10-08T03:45:24.013Z,9.80
2022-10-08T03:47:52.371Z,9.80
2022-10-08T03:50:21.365Z,9.90
2022-10-08T03:52:49.071Z,9.90
2022-10-08T03:55:16.631Z,9.90
2022-10-08T03:57:43.817Z,9.90
2022-10-08T04:00:11.739Z,9.90
2022-10-08T04:02:39.110Z,9.90
2022-10-08T04:05:06.810Z,10.00
2022-10-08T04:07:33.962Z,10.00
2022-10-08T04:10:01.091Z,10.00
2022-10-08T04:12:28.975Z,10.00
2022-10-08T04:14:56.120Z,10.10
2022-10-08T04:17:23.275Z,10.10
2022-10-08T04:19:50.440Z,10.20
2022-10-08T04:22:17.555Z,10.20
2022-10-08T04:24:44.712Z,10.30
2022-10-08T04:27:11.841Z,10.30
2022-10-08T04:29:38.996Z,10.30
2022-10-08T04:32:06.141Z,10.30
2022-10-08T04:34:33.342Z,10.30
2022-10-08T04:37:00.617Z,10.20
2022-10-08T04:39:27.755Z,10.40
2022-10-08T04:41:54.925Z,10.40
2022-10-08T04:44:22.071Z,10.50
2022-10-08T04:46:49.293Z,10.50
2022-10-08T04:49:16.537Z,10.50
2022-10-08T04:51:43.691Z,10.50
2022-10-08T04:54:11.019Z,10.40
2022-10-08T04:56:38.244Z,10.50
2022-10-08T04:59:05.435Z,10.40
2022-10-08T05:01:32.639Z,10.40
2022-10-08T05:04:00.043Z,10.40
2022-10-08T05:06:29.768Z,10.40
2022-10-08T05:08:59.782Z,10.60
2022-10-08T05:11:27.978Z,10.40
2022-10-08T05:13:56.976Z,10.40
2022-10-08T05:16:25.934Z,10.50
2022-10-08T05:18:53.928Z,10.60
2022-10-08T05:21:23.852Z,10.50
2022-10-08T05:24:01.868Z,10.50
2022-10-08T05:26:58.146Z,10.60
2022-10-08T05:29:19.412Z,10.60
2022-10-08T05:31:46.584Z,10.70
2022-10-08T05:34:14.733Z,10.70
2022-10-08T05:36:42.235Z,10.80
2022-10-08T05:39:10.799Z,10.80
2022-10-08T05:41:38.456Z,10.90
2022-10-08T05:44:06.280Z,10.90
2022-10-08T05:46:35.761Z,11.10
2022-10-08T05:49:05.839Z,11.10
2022-10-08T05:51:33.488Z,11.20
2022-10-08T05:54:01.005Z,11.30
2022-10-08T05:56:28.821Z,11.30
2022-10-08T05:58:56.162Z,11.40
2022-10-08T06:01:29.237Z,11.40
2022-10-08T06:03:58.855Z,11.50
2022-10-08T06:06:26.347Z,11.50
2022-10-08T06:08:55.886Z,11.60
2022-10-08T06:11:23.057Z,11.70
2022-10-08T06:13:57.118Z,11.80
2022-10-08T06:16:25.320Z,11.80
2022-10-08T06:18:53.282Z,11.90
2022-10-08T06:21:23.197Z,11.90
2022-10-08T06:23:53.183Z,12.00
2022-10-08T06:26:22.084Z,12.00
2022-10-08T06:28:49.706Z,12.10
2022-10-08T06:31:17.467Z,12.10
2022-10-08T06:33:45.364Z,12.20
2022-10-08T06:36:23.751Z,12.20
2022-10-08T06:38:58.546Z,12.40
2022-10-08T06:41:27.855Z,12.40
2022-10-08T06:43:55.630Z,12.50
2022-10-08T06:46:23.325Z,12.60
2022-10-08T06:48:50.498Z,12.70
2022-10-08T06:51:19.082Z,12.80
2022-10-08T06:53:52.792Z,13.00
2022-10-08T06:56:20.500Z,13.10
2022-10-08T06:58:47.992Z,13.20
2022-10-08T07:01:31.866Z,13.30
2022-10-08T07:04:03.273Z,13.50
2022-10-08T07:06:30.498Z,13.60
2022-10-08T07:09:00.953Z,13.70
2022-10-08T07:11:30.094Z,13.80
2022-10-08T07:13:57.486Z,13.90
2022-10-08T07:16:26.126Z,14.10
2022-10-08T07:18:55.071Z,14.20
2022-10-08T07:21:22.992Z,14.20
2022-10-08T07:23:50.787Z,14.40
2022-10-08T07:26:23.037Z,14.40
2022-10-08T07:28:51.911Z,14.60
2022-10-08T07:31:21.968Z,14.70
2022-10-08T07:33:49.189Z,14.60
2022-10-08T07:36:21.408Z,14.60
2022-10-08T07:38:53.097Z,14.70
2022-10-08T07:41:20.291Z,14.80
2022-10-08T07:43:52.350Z,14.90
2022-10-08T07:46:20.481Z,15.00
2022-10-08T07:48:47.748Z,15.10
2022-10-08T07:51:20.096Z,15.30
2022-10-08T07:53:47.558Z,15.40
2022-10-08T07:56:17.267Z,15.60
2022-10-08T07:58:44.789Z,15.80
2022-10-08T08:01:14.753Z,15.80
2022-10-08T08:03:42.353Z,15.90
2022-10-08T08:06:15.590Z,16.00
2022-10-08T08:08:44.274Z,16.10
2022-10-08T08:11:15.046Z,16.30
2022-10-08T08:13:43.021Z,16.40
2022-10-08T08:16:16.199Z,16.50
2022-10-08T08:18:46.592Z,16.60
2022-10-08T08:21:21.109Z,16.70
2022-10-08T08:23:50.883Z,16.80
2022-10-08T08:26:23.945Z,16.90
2022-10-08T08:28:56.764Z,17.00
2022-10-08T08:31:32.785Z,17.20
2022-10-08T08:34:03.356Z,17.30
2022-10-08T08:36:33.051Z,17.50
2022-10-08T08:39:01.044Z,17.50
2022-10-08T08:41:52.083Z,17.40
2022-10-08T08:44:25.377Z,17.60
2022-10-08T08:47:13.980Z,17.70
2022-10-08T08:49:56.760Z,17.70
2022-10-08T08:52:28.535Z,17.80
2022-10-08T08:54:56.027Z,17.80
2022-10-08T08:57:54.992Z,17.80
2022-10-08T09:00:26.053Z,17.80
2022-10-08T09:03:04.055Z,17.90
2022-10-08T09:05:35.183Z,17.80
2022-10-08T09:08:05.907Z,17.90
2022-10-08T09:10:56.982Z,17.90
2022-10-08T09:13:46.223Z,17.90
2022-10-08T09:16:14.771Z,17.80
2022-10-08T09:18:47.177Z,17.80
2022-10-08T09:21:14.719Z,17.90
2022-10-08T09:23:42.323Z,17.90
2022-10-08T09:26:20.499Z,17.90
2022-10-08T09:28:55.299Z,17.90
2022-10-08T09:31:48.749Z,18.00
2022-10-08T09:34:17.532Z,18.10
2022-10-08T09:37:03.470Z,18.20
2022-10-08T09:39:33.817Z,18.30
2022-10-08T09:42:14.038Z,18.40
2022-10-08T09:44:48.885Z,18.30
2022-10-08T09:47:19.134Z,18.30
2022-10-08T09:50:01.291Z,18.50
2022-10-08T09:52:29.147Z,18.50
2022-10-08T09:55:09.625Z,18.70
2022-10-08T09:57:44.793Z,18.70
2022-10-08T10:00:35.221Z,18.80
2022-10-08T10:03:05.574Z,18.90
2022-10-08T10:05:35.566Z,19.00
2022-10-08T10:08:03.443Z,19.20
2022-10-08T10:10:44.989Z,19.50
2022-10-08T10:13:17.291Z,19.60
2022-10-08T10:15:50.575Z,19.70
2022-10-08T10:18:29.099Z,19.60
2022-10-08T10:21:08.209Z,19.60
2022-10-08T10:23:41.295Z,19.70
2022-10-08T10:26:39.125Z,19.60
2022-10-08T10:29:16.952Z,19.60
2022-10-08T10:32:02.487Z,19.40
2022-10-08T10:34:33.199Z,19.10
2022-10-08T10:37:04.787Z,18.90
2022-10-08T10:40:13.639Z,18.70
2022-10-08T10:42:50.571Z,18.60
2022-10-08T10:45:24.788Z,18.40
2022-10-08T10:47:54.097Z,18.50
2022-10-08T10:50:56.772Z,18.40
2022-10-08T10:53:48.873Z,18.30
2022-10-08T10:56:21.375Z,18.40
2022-10-08T10:59:13.269Z,18.40
2022-10-08T11:02:03.435Z,18.50
2022-10-08T11:04:48.415Z,18.40
2022-10-08T11:07:41.244Z,18.40
2022-10-08T11:10:14.456Z,18.20
2022-10-08T11:12:50.495Z,18.00
2022-10-08T11:15:30.826Z,18.00
2022-10-08T11:18:03.505Z,17.80
2022-10-08T11:20:49.861Z,17.70
2022-10-08T11:24:00.118Z,17.50
2022-10-08T11:26:56.345Z,17.70
2022-10-08T11:29:31.300Z,17.50
2022-10-08T11:31:58.884Z,17.60
2022-10-08T11:34:31.524Z,17.70
2022-10-08T11:37:18.924Z,17.70
2022-10-08T11:40:04.565Z,17.60
2022-10-08T11:42:48.117Z,17.60
2022-10-08T11:45:30.456Z,17.60
2022-10-08T11:48:00.499Z,17.50
2022-10-08T11:50:30.468Z,17.60
2022-10-08T11:53:21.473Z,17.50
2022-10-08T11:55:55.426Z,17.50
2022-10-08T11:58:30.351Z,17.40
2022-10-08T12:01:08.625Z,17.30
2022-10-08T12:03:42.843Z,17.30
2022-10-08T12:06:18.104Z,17.30
2022-10-08T12:08:59.586Z,17.20
2022-10-08T12:11:29.776Z,17.10
2022-10-08T12:14:12.187Z,17.10
2022-10-08T12:16:48.759Z,17.00
2022-10-08T12:19:34.683Z,17.10
2022-10-08T12:22:04.890Z,17.20
2022-10-08T12:24:38.169Z,17.20
2022-10-08T12:27:17.543Z,17.20
2022-10-08T12:30:10.891Z,17.30
2022-10-08T12:32:44.205Z,17.30
2022-10-08T12:35:24.269Z,17.40
2022-10-08T12:38:02.468Z,17.50
2022-10-08T12:40:42.731Z,17.60
2022-10-08T12:43:40.998Z,17.70
2022-10-08T12:46:34.048Z,17.50
2022-10-08T12:49:23.230Z,17.50
2022-10-08T12:52:01.349Z,17.60
2022-10-08T12:54:30.205Z,17.60
2022-10-08T12:56:58.644Z,17.40
2022-10-08T12:59:31.461Z,17.40
2022-10-08T13:01:59.152Z,17.40
2022-10-08T13:04:32.192Z,17.40
2022-10-08T13:06:59.615Z,17.40
2022-10-08T13:09:29.880Z,17.40
2022-10-08T13:12:03.503Z,17.40
2022-10-08T13:14:33.587Z,17.40
2022-10-08T13:17:01.132Z,17.20
2022-10-08T13:19:31.883Z,17.20
2022-10-08T13:22:30.668Z,17.20
2022-10-08T13:24:57.822Z,17.10
2022-10-08T13:27:31.729Z,17.00
2022-10-08T13:30:00.355Z,17.00
2022-10-08T13:32:35.147Z,17.00
2022-10-08T13:35:04.766Z,16.80
2022-10-08T13:37:37.842Z,16.80
2022-10-08T13:40:10.941Z,16.80
2022-10-08T13:42:50.756Z,16.90
2022-10-08T13:45:21.011Z,16.70
2022-10-08T13:47:48.864Z,16.70
2022-10-08T13:50:17.202Z,16.60
2022-10-08T13:52:54.649Z,16.50
2022-10-08T13:55:28.279Z,16.50
2022-10-08T13:57:56.978Z,16.50
2022-10-08T14:00:24.518Z,16.60
2022-10-08T14:02:52.183Z,16.50
2022-10-08T14:05:23.816Z,16.50
2022-10-08T14:07:55.085Z,16.50
2022-10-08T14:10:22.611Z,16.50
2022-10-08T14:12:49.877Z,16.50
2022-10-08T14:15:18.221Z,16.40
2022-10-08T14:17:45.629Z,16.30
2022-10-08T14:20:13.069Z,16.20
2022-10-08T14:22:40.353Z,16.20
2022-10-08T14:25:20.037Z,16.00
2022-10-08T14:27:47.616Z,15.90
2022-10-08T14:30:16.490Z,15.80
2022-10-08T14:32:44.350Z,15.80
2022-10-08T14:35:12.640Z,15.70
2022-10-08T14:37:40.717Z,15.70
2022-10-08T14:40:11.727Z,15.60
2022-10-08T14:42:38.872Z,15.50
2022-10-08T14:45:06.527Z,15.40
2022-10-08T14:47:33.960Z,15.50
2022-10-08T14:50:01.140Z,15.50
2022-10-08T14:52:28.322Z,15.70
2022-10-08T14:54:55.475Z,15.70
2022-10-08T14:57:22.994Z,15.60
2022-10-08T14:59:50.136Z,15.50
2022-10-08T15:02:18.497Z,15.50
2022-10-08T15:04:45.692Z,15.30
2022-10-08T15:07:12.836Z,15.20
2022-10-08T15:09:40.587Z,15.10
2022-10-08T15:12:08.388Z,15.10
2022-10-08T15:14:38.120Z,14.90
2022-10-08T15:17:05.858Z,15.00
2022-10-08T15:19:33.012Z,15.00
2022-10-08T15:22:00.274Z,14.90
2022-10-08T15:24:27.449Z,14.90
2022-10-08T15:26:54.630Z,14.90
2022-10-08T15:29:21.913Z,14.70
2022-10-08T15:31:52.429Z,14.60
2022-10-08T15:34:20.501Z,14.60
2022-10-08T15:36:47.696Z,14.60
2022-10-08T15:39:19.020Z,14.50
2022-10-08T15:41:48.569Z,14.50
2022-10-08T15:44:19.380Z,14.50
2022-10-08T15:46:47.798Z,14.50
2022-10-08T15:49:15.519Z,14.50
2022-10-08T15:51:42.777Z,14.50
2022-10-08T15:54:09.960Z,14.60
2022-10-08T15:56:37.183Z,14.60
2022-10-08T15:59:04.739Z,14.60
2022-10-08T16:01:33.099Z,14.70
2022-10-08T16:04:01.032Z,14.70
2022-10-08T16:06:33.468Z,14.70
2022-10-08T16:09:01.004Z,14.70
2022-10-08T16:11:32.088Z,14.60
2022-10-08T16:14:08.432Z,14.70
2022-10-08T16:16:36.487Z,14.60
2022-10-08T16:19:09.067Z,14.70
2022-10-08T16:21:39.635Z,14.70
2022-10-08T16:24:06.896Z,14.70
2022-10-08T16:26:35.404Z,14.60
2022-10-08T16:29:08.484Z,14.60
2022-10-08T16:31:37.296Z,14.50
2022-10-08T16:34:12.145Z,14.50
2022-10-08T16:36:39.594Z,14.60
2022-10-08T16:39:08.168Z,14.60
2022-10-08T16:41:37.236Z,14.50
2022-10-08T16:44:12.642Z,14.60
2022-10-08T16:46:48.269Z,14.60
2022-10-08T16:49:24.240Z,14.60
2022-10-08T16:52:00.415Z,14.50
2022-10-08T16:54:28.200Z,14.50
2022-10-08T16:56:56.548Z,14.50
2022-10-08T16:59:25.999Z,14.50
2022-10-08T17:01:55.513Z,14.40
2022-10-08T17:04:24.013Z,14.40
2022-10-08T17:06:51.435Z,14.50
2022-10-08T17:09:18.668Z,14.40
2022-10-08T17:11:46.252Z,14.40
2022-10-08T17:14:13.593Z,14.30
2022-10-08T17:16:43.280Z,14.30
2022-10-08T17:19:11.256Z,14.30
2022-10-08T17:21:38.431Z,14.40
2022-10-08T17:24:05.782Z,14.30
2022-10-08T17:26:33.434Z,14.20
2022-10-08T17:29:09.017Z,14.20
2022-10-08T17:31:37.166Z,14.20
2022-10-08T17:34:05.261Z,14.20
2022-10-08T17:36:35.099Z,14.20
2022-10-08T17:39:05.297Z,14.10
2022-10-08T17:41:35.300Z,13.90
2022-10-08T17:44:05.412Z,14.00
2022-10-08T17:46:45.696Z,14.10
2022-10-08T17:49:18.048Z,14.00
2022-10-08T17:51:45.863Z,13.90
2022-10-08T17:54:15.171Z,13.90
2022-10-08T17:56:42.686Z,13.90
2022-10-08T17:59:15.570Z,14.00
2022-10-08T18:01:45.352Z,13.90
2022-10-08T18:04:15.528Z,13.90
2022-10-08T18:06:45.895Z,13.90
2022-10-08T18:09:21.994Z,14.00
2022-10-08T18:11:53.093Z,13.90
2022-10-08T18:14:21.571Z,13.90
2022-10-08T18:16:49.348Z,14.00
2022-10-08T18:19:17.990Z,13.90
2022-10-08T18:21:45.499Z,13.90
2022-10-08T18:24:13.032Z,13.80
2022-10-08T18:26:40.228Z,14.00
2022-10-08T18:29:10.716Z,13.80
2022-10-08T18:31:39.813Z,13.80
2022-10-08T18:34:09.734Z,13.70
2022-10-08T18:36:38.456Z,13.70
2022-10-08T18:39:09.676Z,13.70
2022-10-08T18:41:41.071Z,13.70
2022-10-08T18:44:12.027Z,13.70
2022-10-08T18:46:40.076Z,13.70
2022-10-08T18:49:07.369Z,13.80
2022-10-08T18:51:34.861Z,13.80
2022-10-08T18:54:02.210Z,13.70
2022-10-08T18:56:34.356Z,13.70
2022-10-08T18:59:04.883Z,13.70
2022-10-08T19:01:34.497Z,13.60
2022-10-08T19:04:04.821Z,13.60
2022-10-08T19:06:37.518Z,13.60
2022-10-08T19:09:06.451Z,13.60
2022-10-08T19:11:40.698Z,13.50
2022-10-08T19:14:13.537Z,13.40
2022-10-08T19:16:41.469Z,13.40
2022-10-08T19:19:22.409Z,13.40
2022-10-08T19:21:50.508Z,13.30
2022-10-08T19:24:23.617Z,13.30
2022-10-08T19:26:51.691Z,13.30
2022-10-08T19:29:24.262Z,13.30
2022-10-08T19:31:51.724Z,13.20
2022-10-08T19:34:22.230Z,13.30
2022-10-08T19:36:49.679Z,13.20
2022-10-08T19:39:19.717Z,13.20
2022-10-08T19:41:47.060Z,13.20
2022-10-08T19:44:16.387Z,13.10
2022-10-08T19:46:43.760Z,13.30
2022-10-08T19:49:11.680Z,13.20
2022-10-08T19:51:39.385Z,13.20
2022-10-08T19:54:06.937Z,13.30
2022-10-08T19:56:35.703Z,13.20
2022-10-08T19:59:03.051Z,13.20
2022-10-08T20:01:33.533Z,13.20
2022-10-08T20:04:02.227Z,13.20
2022-10-08T20:06:31.878Z,13.20
2022-10-08T20:09:01.457Z,13.20
2022-10-08T20:11:30.463Z,13.10
2022-10-08T20:13:58.662Z,13.10
2022-10-08T20:16:31.931Z,13.00
2022-10-08T20:19:01.523Z,12.90
2022-10-08T20:21:30.996Z,13.00
2022-10-08T20:23:58.372Z,13.00
2022-10-08T20:26:27.421Z,12.90
2022-10-08T20:28:58.254Z,12.80
2022-10-08T20:31:28.885Z,12.80
2022-10-08T20:34:01.195Z,12.80
2022-10-08T20:36:29.434Z,12.70
2022-10-08T20:38:57.594Z,12.70
2022-10-08T20:41:30.471Z,12.60
2022-10-08T20:44:03.208Z,12.60
2022-10-08T20:46:32.126Z,12.60
2022-10-08T20:48:59.699Z,12.60
2022-10-08T20:51:28.274Z,12.40
2022-10-08T20:54:00.985Z,12.50
2022-10-08T20:56:30.031Z,12.40
2022-10-08T20:58:58.109Z,12.40
2022-10-08T21:01:30.819Z,12.40
2022-10-08T21:04:00.407Z,12.40
2022-10-08T21:06:30.676Z,12.40
2022-10-08T21:08:59.199Z,12.30
2022-10-08T21:11:29.279Z,12.40
2022-10-08T21:13:58.604Z,12.40
2022-10-08T21:16:30.030Z,12.30
2022-10-08T21:19:03.058Z,12.20
2022-10-08T21:21:31.779Z,12.20
2022-10-08T21:23:59.896Z,12.20
2022-10-08T21:26:29.459Z,12.10
2022-10-08T21:28:58.695Z,12.00
2022-10-08T21:31:27.693Z,12.10
2022-10-08T21:33:55.632Z,12.10
2022-10-08T21:36:28.415Z,12.10
2022-10-08T21:38:55.874Z,12.10
2022-10-08T21:41:24.538Z,12.10
2022-10-08T21:43:54.051Z,12.10
2022-10-08T21:46:24.408Z,12.10
2022-10-08T21:48:59.513Z,12.20
2022-10-08T21:51:28.192Z,12.10
2022-10-08T21:53:58.102Z,12.00
2022-10-08T21:56:28.168Z,12.00
2022-10-08T21:58:58.195Z,11.90
2022-10-08T22:01:36.705Z,11.90
2022-10-08T22:04:08.004Z,11.90
2022-10-08T22:06:37.992Z,11.80
2022-10-08T22:09:07.049Z,11.90
2022-10-08T22:11:34.751Z,11.60
2022-10-08T22:14:01.893Z,11.70
2022-10-08T22:16:29.737Z,11.80
2022-10-08T22:18:57.924Z,11.60
2022-10-08T22:21:25.119Z,11.60
2022-10-08T22:23:52.890Z,11.60
2022-10-08T22:26:22.799Z,11.50
2022-10-08T22:28:50.752Z,11.50
2022-10-08T22:31:19.497Z,11.40
2022-10-08T22:33:47.316Z,11.40
2022-10-08T22:36:17.524Z,11.40
2022-10-08T22:38:45.827Z,11.40
2022-10-08T22:41:16.241Z,11.40
2022-10-08T22:43:44.060Z,11.40
2022-10-08T22:46:14.825Z,11.40
2022-10-08T22:48:42.147Z,11.40
2022-10-08T22:51:18.486Z,11.30
2022-10-08T22:53:46.517Z,11.30
2022-10-08T22:56:17.175Z,11.40
2022-10-08T22:58:45.667Z,11.30
2022-10-08T23:01:16.388Z,11.30
2022-10-08T23:03:44.400Z,11.30
2022-10-08T23:06:24.201Z,11.20
2022-10-08T23:08:57.084Z,11.30
2022-10-08T23:11:24.999Z,11.30
2022-10-08T23:13:53.915Z,11.30
2022-10-08T23:16:21.300Z,11.20
2022-10-08T23:18:58.782Z,11.20
2022-10-08T23:21:27.070Z,11.20
2022-10-08T23:23:55.440Z,11.10
2022-10-08T23:26:23.619Z,11.10
2022-10-08T23:28:52.951Z,11.00
2022-10-08T23:31:23.486Z,10.90
2022-10-08T23:33:52.555Z,10.90
2022-10-08T23:36:25.359Z,10.90
2022-10-08T23:38:52.865Z,10.90
2022-10-08T23:41:20.536Z,10.90
2022-10-08T23:43:49.753Z,10.80
2022-10-08T23:46:19.849Z,10.70
2022-10-08T23:48:49.320Z,10.70
2022-10-08T23:51:17.751Z,10.60
2022-10-08T23:53:45.898Z,10.60
2022-10-08T23:56:13.723Z,10.60
2022-10-08T23:58:41.291Z,10.60
